createdAt,value
2023-02-27T00:01:04.523Z,7.10
2023-02-27T00:03:32.512Z,7.27
2023-02-27T00:06:00.607Z,7.47
2023-02-27T00:08:28.668Z,7.13
2023-02-27T00:10:57.924Z,7.70
2023-02-27T00:13:25.794Z,7.37
2023-02-27T00:15:56.307Z,7.83
2023-02-27T00:18:24.407Z,7.73
2023-02-27T00:20:52.362Z,8.33
2023-02-27T00:23:20.237Z,7.50
2023-02-27T00:25:48.141Z,7.37
2023-02-27T00:28:17.550Z,8.50
2023-02-27T00:30:45.588Z,8.03
2023-02-27T00:33:13.379Z,8.00
2023-02-27T00:35:41.163Z,7.77
2023-02-27T00:38:09.120Z,8.10
2023-02-27T00:40:37.078Z,8.03
2023-02-27T00:43:05.132Z,7.80
2023-02-27T00:45:34.604Z,9.13
2023-02-27T00:48:02.373Z,7.50
2023-02-27T00:50:30.143Z,8.20
2023-02-27T00:52:58.029Z,8.10
2023-02-27T00:55:27.347Z,8.10
2023-02-27T00:57:55.511Z,8.63
2023-02-27T01:00:23.620Z,8.83
2023-02-27T01:02:55.687Z,8.10
2023-02-27T01:05:23.757Z,8.70
2023-02-27T01:07:51.745Z,8.80
2023-02-27T01:10:19.663Z,9.30
2023-02-27T01:12:47.694Z,9.23
2023-02-27T01:15:15.524Z,8.93
2023-02-27T01:17:43.678Z,9.80
2023-02-27T01:20:13.891Z,9.20
2023-02-27T01:22:42.212Z,8.50
2023-02-27T01:25:10.458Z,12.87
2023-02-27T01:27:38.430Z,17.77
2023-02-27T01:30:08.103Z,16.23
2023-02-27T01:32:36.434Z,13.90
2023-02-27T01:35:04.564Z,15.10
2023-02-27T01:37:34.069Z,13.13
2023-02-27T01:40:02.019Z,12.93
2023-02-27T01:42:30.095Z,13.17
2023-02-27T01:45:16.218Z,13.57
2023-02-27T01:47:45.193Z,13.10
2023-02-27T01:50:13.093Z,12.93
2023-02-27T01:52:42.628Z,12.33
2023-02-27T01:55:12.735Z,11.90
2023-02-27T01:57:40.622Z,12.33
2023-02-27T02:00:10.432Z,11.97
2023-02-27T02:02:40.336Z,12.23
2023-02-27T02:05:09.037Z,12.13
2023-02-27T02:07:38.440Z,11.80
2023-02-27T02:10:08.830Z,10.67
2023-02-27T02:12:37.816Z,11.60
2023-02-27T02:15:06.208Z,10.43
2023-02-27T02:17:44.314Z,10.03
2023-02-27T02:20:56.786Z,10.33
2023-02-27T02:23:40.682Z,10.00
2023-02-27T02:26:45.444Z,9.77
2023-02-27T02:29:53.199Z,9.70
2023-02-27T02:32:49.213Z,9.50
2023-02-27T02:35:49.878Z,8.63
2023-02-27T02:38:32.006Z,9.00
2023-02-27T02:41:01.974Z,8.07
2023-02-27T02:43:31.654Z,8.40
2023-02-27T02:46:02.683Z,8.87
2023-02-27T02:48:33.169Z,9.10
2023-02-27T02:51:04.947Z,8.67
2023-02-27T02:53:37.717Z,8.30
2023-02-27T02:56:06.942Z,8.37
2023-02-27T02:58:36.884Z,8.60
2023-02-27T03:01:10.178Z,7.97
2023-02-27T03:03:40.586Z,8.10
2023-02-27T03:06:11.127Z,7.77
2023-02-27T03:08:44.022Z,8.20
2023-02-27T03:11:12.109Z,7.63
2023-02-27T03:13:41.349Z,7.67
2023-02-27T03:16:12.315Z,7.37
2023-02-27T03:18:44.464Z,6.73
2023-02-27T03:21:13.721Z,7.60
2023-02-27T03:23:45.518Z,7.23
2023-02-27T03:26:14.803Z,7.20
2023-02-27T03:28:45.578Z,6.40
2023-02-27T03:31:16.701Z,7.53
2023-02-27T03:33:46.597Z,6.80
2023-02-27T03:36:18.464Z,7.00
2023-02-27T03:38:50.612Z,6.60
2023-02-27T03:41:20.955Z,7.23
2023-02-27T03:43:52.576Z,7.13
2023-02-27T03:46:22.095Z,6.93
2023-02-27T03:48:50.393Z,6.70
2023-02-27T03:51:19.589Z,6.57
2023-02-27T03:53:50.738Z,5.87
2023-02-27T03:56:21.629Z,6.53
2023-02-27T03:58:49.433Z,6.40
2023-02-27T04:01:17.983Z,6.40
2023-02-27T04:03:49.310Z,5.67
2023-02-27T04:06:34.875Z,6.03
2023-02-27T04:09:06.053Z,6.27
2023-02-27T04:11:36.869Z,5.67
2023-02-27T04:14:11.564Z,5.30
2023-02-27T04:16:52.424Z,5.93
2023-02-27T04:19:47.123Z,5.90
2023-02-27T04:22:21.399Z,5.43
2023-02-27T04:24:55.401Z,5.10
2023-02-27T04:27:28.672Z,5.87
2023-02-27T04:29:58.724Z,5.40
2023-02-27T04:32:31.111Z,5.40
2023-02-27T04:35:00.011Z,5.53
2023-02-27T04:37:30.794Z,5.50
2023-02-27T04:40:01.637Z,5.10
2023-02-27T04:42:31.898Z,4.83
2023-02-27T04:45:01.707Z,5.57
2023-02-27T04:47:31.324Z,5.13
2023-02-27T04:50:00.409Z,4.73
2023-02-27T04:52:30.532Z,5.20
2023-02-27T04:55:01.363Z,4.80
2023-02-27T04:57:32.008Z,4.97
2023-02-27T04:59:59.868Z,5.30
2023-02-27T05:02:29.481Z,5.07
2023-02-27T05:04:58.572Z,5.03
2023-02-27T05:07:28.246Z,5.07
2023-02-27T05:09:57.342Z,5.00
2023-02-27T05:12:30.360Z,5.30
2023-02-27T05:15:00.328Z,4.70
2023-02-27T05:17:32.934Z,4.63
2023-02-27T05:20:00.717Z,4.63
2023-02-27T05:22:31.781Z,5.17
2023-02-27T05:25:03.160Z,4.83
2023-02-27T05:27:34.972Z,4.80
2023-02-27T05:30:05.005Z,3.90
2023-02-27T05:32:36.194Z,4.17
2023-02-27T05:35:10.415Z,4.70
2023-02-27T05:37:40.680Z,4.03
2023-02-27T05:40:10.369Z,4.40
2023-02-27T05:42:41.380Z,4.50
2023-02-27T05:45:11.109Z,4.10
2023-02-27T05:47:41.145Z,4.30
2023-02-27T05:50:10.419Z,4.87
2023-02-27T05:52:38.204Z,4.37
2023-02-27T05:55:07.907Z,3.70
2023-02-27T05:57:40.077Z,4.20
2023-02-27T06:00:11.613Z,4.00
2023-02-27T06:02:39.813Z,4.00
2023-02-27T06:05:08.425Z,3.77
2023-02-27T06:07:36.616Z,3.80
2023-02-27T06:10:05.253Z,3.77
2023-02-27T06:12:33.564Z,4.37
2023-02-27T06:15:02.654Z,3.70
2023-02-27T06:17:30.824Z,3.53
2023-02-27T06:19:58.582Z,3.60
2023-02-27T06:22:26.752Z,4.00
2023-02-27T06:24:54.720Z,4.10
2023-02-27T06:27:23.100Z,3.73
2023-02-27T06:29:51.089Z,4.10
2023-02-27T06:32:20.639Z,4.00
2023-02-27T06:34:48.898Z,4.10
2023-02-27T06:37:16.654Z,4.33
2023-02-27T06:39:44.921Z,4.10
2023-02-27T06:42:12.657Z,3.90
2023-02-27T06:44:40.432Z,3.90
2023-02-27T06:47:08.185Z,4.07
2023-02-27T06:49:37.356Z,3.93
2023-02-27T06:52:05.315Z,3.57
2023-02-27T06:54:34.396Z,3.80
2023-02-27T06:57:02.370Z,3.87
2023-02-27T06:59:30.393Z,3.63
2023-02-27T07:01:59.218Z,3.60
2023-02-27T07:04:27.207Z,2.90
2023-02-27T07:07:34.246Z,3.23
2023-02-27T07:09:44.575Z,4.20
2023-02-27T07:12:12.575Z,3.80
2023-02-27T07:14:40.999Z,3.80
2023-02-27T07:17:08.967Z,3.60
2023-02-27T07:19:37.545Z,3.33
2023-02-27T07:22:07.083Z,3.80
2023-02-27T07:24:34.789Z,3.50
2023-02-27T07:27:03.099Z,3.93
2023-02-27T07:29:30.953Z,3.60
2023-02-27T07:31:58.941Z,3.70
2023-02-27T07:34:26.933Z,3.37
2023-02-27T07:36:55.357Z,3.50
2023-02-27T07:39:24.673Z,3.43
2023-02-27T07:41:52.424Z,2.93
2023-02-27T07:44:20.265Z,3.17
2023-02-27T07:46:48.640Z,3.30
2023-02-27T07:49:16.779Z,3.17
2023-02-27T07:51:44.985Z,3.33
2023-02-27T07:54:12.849Z,2.60
2023-02-27T07:56:42.387Z,3.50
2023-02-27T07:59:10.410Z,3.53
2023-02-27T08:01:38.233Z,3.30
2023-02-27T08:04:05.980Z,3.20
2023-02-27T08:06:33.760Z,3.20
2023-02-27T08:09:02.036Z,3.20
2023-02-27T08:11:30.048Z,3.60
2023-02-27T08:14:01.228Z,2.83
2023-02-27T08:16:30.774Z,2.77
2023-02-27T08:18:59.834Z,3.30
2023-02-27T08:21:28.382Z,3.00
2023-02-27T08:23:56.946Z,2.67
2023-02-27T08:26:24.946Z,2.80
2023-02-27T08:28:52.916Z,2.80
2023-02-27T08:31:22.348Z,2.70
2023-02-27T08:33:58.107Z,2.50
2023-02-27T08:36:35.990Z,3.00
2023-02-27T08:39:04.360Z,2.73
2023-02-27T08:41:32.925Z,2.60
2023-02-27T08:44:01.008Z,2.60
2023-02-27T08:46:31.219Z,3.10
2023-02-27T08:48:59.339Z,3.00
2023-02-27T08:51:27.756Z,2.60
2023-02-27T08:53:59.006Z,2.77
2023-02-27T08:56:27.675Z,3.57
2023-02-27T08:58:56.142Z,2.53
2023-02-27T09:01:27.986Z,2.67
2023-02-27T09:03:57.783Z,2.83
2023-02-27T09:06:26.526Z,2.70
2023-02-27T09:08:54.811Z,3.20
2023-02-27T09:11:23.101Z,2.80
2023-02-27T09:13:52.986Z,2.73
2023-02-27T09:16:21.159Z,2.80
2023-02-27T09:18:49.638Z,2.50
2023-02-27T09:21:18.972Z,2.77
2023-02-27T09:23:47.266Z,2.80
2023-02-27T09:26:16.259Z,2.97
2023-02-27T09:28:44.315Z,2.40
2023-02-27T09:31:12.842Z,2.53
2023-02-27T09:33:40.971Z,2.80
2023-02-27T09:36:09.276Z,2.20
2023-02-27T09:38:41.309Z,2.40
2023-02-27T09:41:29.698Z,2.70
2023-02-27T09:43:57.649Z,2.63
2023-02-27T09:46:48.843Z,2.67
2023-02-27T09:49:22.488Z,2.50
2023-02-27T09:51:55.134Z,2.20
2023-02-27T09:54:30.482Z,2.47
2023-02-27T09:56:59.907Z,2.10
2023-02-27T09:59:32.627Z,2.17
2023-02-27T10:02:06.298Z,2.30
2023-02-27T10:04:37.849Z,2.20
2023-02-27T10:07:11.545Z,2.60
2023-02-27T10:09:45.305Z,1.97
2023-02-27T10:12:34.357Z,2.40
2023-02-27T10:15:06.108Z,2.33
2023-02-27T10:17:36.184Z,1.93
2023-02-27T10:20:09.737Z,1.97
2023-02-27T10:22:40.037Z,2.17
2023-02-27T10:25:30.421Z,2.40
2023-02-27T10:28:08.191Z,2.27
2023-02-27T10:30:47.242Z,1.93
2023-02-27T10:33:36.018Z,2.20
2023-02-27T10:36:18.048Z,2.10
2023-02-27T10:39:21.158Z,1.87
2023-02-27T10:42:00.563Z,2.13
2023-02-27T10:44:36.502Z,1.83
2023-02-27T10:47:04.422Z,2.27
2023-02-27T10:49:38.116Z,2.40
2023-02-27T10:52:08.597Z,1.93
2023-02-27T10:54:37.584Z,2.10
2023-02-27T10:57:18.449Z,1.90
2023-02-27T10:59:51.955Z,2.27
2023-02-27T11:02:24.402Z,1.90
2023-02-27T11:04:54.677Z,2.50
2023-02-27T11:07:34.027Z,2.37
2023-02-27T11:10:04.361Z,2.63
2023-02-27T11:12:34.676Z,2.67
2023-02-27T11:15:03.715Z,3.10
2023-02-27T11:17:32.921Z,2.80
2023-02-27T11:20:01.892Z,2.63
2023-02-27T11:22:30.627Z,2.50
2023-02-27T11:25:21.428Z,2.37
2023-02-27T11:27:52.332Z,2.90
2023-02-27T11:30:27.005Z,2.60
2023-02-27T11:32:55.710Z,2.80
2023-02-27T11:35:25.373Z,2.50
2023-02-27T11:37:53.904Z,2.40
2023-02-27T11:40:22.569Z,2.20
2023-02-27T11:42:53.348Z,2.30
2023-02-27T11:46:13.207Z,2.30
2023-02-27T11:48:20.012Z,2.10
2023-02-27T11:50:58.392Z,2.23
2023-02-27T11:53:35.949Z,2.20
2023-02-27T11:56:07.468Z,1.90
2023-02-27T11:58:45.070Z,1.90
2023-02-27T12:01:19.958Z,2.23
2023-02-27T12:03:50.720Z,2.20
2023-02-27T12:06:20.404Z,1.40
2023-02-27T12:08:50.371Z,1.70
2023-02-27T12:11:22.965Z,1.47
2023-02-27T12:13:55.027Z,1.20
2023-02-27T12:16:26.248Z,1.73
2023-02-27T12:18:56.269Z,1.57
2023-02-27T12:21:25.468Z,1.50
2023-02-27T12:23:55.823Z,1.50
2023-02-27T12:26:25.337Z,1.40
2023-02-27T12:28:57.276Z,1.30
2023-02-27T12:31:44.853Z,1.60
2023-02-27T12:34:37.961Z,1.57
2023-02-27T12:37:07.548Z,1.70
2023-02-27T12:39:36.310Z,1.73
2023-02-27T12:42:18.917Z,1.70
2023-02-27T12:44:59.166Z,1.50
2023-02-27T12:47:29.994Z,1.60
2023-02-27T12:49:59.821Z,1.47
2023-02-27T12:52:34.518Z,1.70
2023-02-27T12:55:05.027Z,2.03
2023-02-27T12:57:51.111Z,1.90
2023-02-27T13:00:20.901Z,1.73
2023-02-27T13:02:53.074Z,1.90
2023-02-27T13:05:38.478Z,1.80
2023-02-27T13:08:15.469Z,1.50
2023-02-27T13:10:45.004Z,1.80
2023-02-27T13:13:17.053Z,1.80
2023-02-27T13:15:48.683Z,2.07
2023-02-27T13:18:31.328Z,1.80
2023-02-27T13:21:01.817Z,2.00
2023-02-27T13:23:32.595Z,1.70
2023-02-27T13:26:00.458Z,1.70
2023-02-27T13:28:29.264Z,1.90
2023-02-27T13:31:02.356Z,1.77
2023-02-27T13:33:32.086Z,1.50
2023-02-27T13:36:05.275Z,1.43
2023-02-27T13:38:35.797Z,1.40
2023-02-27T13:41:37.236Z,1.30
2023-02-27T13:44:39.291Z,1.60
2023-02-27T13:47:40.517Z,1.40
2023-02-27T13:50:42.033Z,1.47
2023-02-27T13:53:11.920Z,1.77
2023-02-27T13:55:40.076Z,1.40
2023-02-27T13:58:07.799Z,1.80
2023-02-27T14:00:37.826Z,1.77
2023-02-27T14:03:07.529Z,1.77
2023-02-27T14:05:36.594Z,1.60
2023-02-27T14:08:14.901Z,1.50
2023-02-27T14:10:51.644Z,1.37
2023-02-27T14:13:57.638Z,1.50
2023-02-27T14:17:00.273Z,1.33
2023-02-27T14:19:56.774Z,1.80
2023-02-27T14:22:37.398Z,1.90
2023-02-27T14:25:17.424Z,1.57
2023-02-27T14:27:55.854Z,1.53
2023-02-27T14:30:36.657Z,1.47
2023-02-27T14:33:12.335Z,1.87
2023-02-27T14:35:40.324Z,1.80
2023-02-27T14:38:10.706Z,1.93
2023-02-27T14:40:43.006Z,1.90
2023-02-27T14:43:18.582Z,1.80
2023-02-27T14:45:46.618Z,1.50
2023-02-27T14:48:28.267Z,1.87
2023-02-27T14:50:58.011Z,2.70
2023-02-27T14:53:26.645Z,3.00
2023-02-27T14:55:56.444Z,3.83
2023-02-27T14:58:24.374Z,2.50
2023-02-27T15:01:02.398Z,3.60
2023-02-27T15:03:34.493Z,3.87
2023-02-27T15:06:03.633Z,4.10
2023-02-27T15:08:32.990Z,4.07
2023-02-27T15:11:02.575Z,4.73
2023-02-27T15:13:31.692Z,4.30
2023-02-27T15:16:23.040Z,4.10
2023-02-27T15:18:51.954Z,4.80
2023-02-27T15:21:20.643Z,4.40
2023-02-27T15:23:55.192Z,4.90
2023-02-27T15:26:24.872Z,4.43
2023-02-27T15:28:53.064Z,4.23
2023-02-27T15:31:22.366Z,3.97
2023-02-27T15:33:50.462Z,4.00
2023-02-27T15:36:20.801Z,3.80
2023-02-27T15:38:48.861Z,4.03
2023-02-27T15:41:18.822Z,4.00
2023-02-27T15:43:48.166Z,4.27
2023-02-27T15:46:16.347Z,3.73
2023-02-27T15:48:44.466Z,3.90
2023-02-27T15:51:12.953Z,3.90
2023-02-27T15:53:42.855Z,3.53
2023-02-27T15:56:13.602Z,3.93
2023-02-27T15:58:46.762Z,3.60
2023-02-27T16:01:19.925Z,3.50
2023-02-27T16:03:48.730Z,3.37
2023-02-27T16:06:20.007Z,1.93
2023-02-27T16:08:49.070Z,1.77
2023-02-27T16:11:20.974Z,1.77
2023-02-27T16:13:48.980Z,2.00
2023-02-27T16:16:32.175Z,1.87
2023-02-27T16:19:02.794Z,1.43
2023-02-27T16:21:32.101Z,1.80
2023-02-27T16:24:21.106Z,1.80
2023-02-27T16:26:51.438Z,1.47
2023-02-27T16:29:19.980Z,2.10
2023-02-27T16:31:50.114Z,1.67
2023-02-27T16:34:28.055Z,1.83
2023-02-27T16:37:01.689Z,1.47
2023-02-27T16:39:29.681Z,1.30
2023-02-27T16:41:58.746Z,1.43
2023-02-27T16:44:26.960Z,1.67
2023-02-27T16:46:57.552Z,1.77
2023-02-27T16:49:26.176Z,1.90
2023-02-27T16:51:53.866Z,1.77
2023-02-27T16:54:21.602Z,1.87
2023-02-27T16:56:49.539Z,1.70
2023-02-27T16:59:28.500Z,1.30
2023-02-27T17:01:57.693Z,1.60
2023-02-27T17:04:26.235Z,1.50
2023-02-27T17:06:54.114Z,1.57
2023-02-27T17:09:21.812Z,1.70
2023-02-27T17:11:50.564Z,1.90
2023-02-27T17:14:18.276Z,1.40
2023-02-27T17:16:47.343Z,1.60
2023-02-27T17:19:16.468Z,1.77
2023-02-27T17:21:44.294Z,1.60
2023-02-27T17:24:12.068Z,1.70
2023-02-27T17:26:39.821Z,1.50
2023-02-27T17:29:08.450Z,1.50
2023-02-27T17:31:36.233Z,1.70
2023-02-27T17:34:04.628Z,1.40
2023-02-27T17:36:34.119Z,1.40
2023-02-27T17:39:02.089Z,1.40
2023-02-27T17:41:30.451Z,1.53
2023-02-27T17:43:58.362Z,1.40
2023-02-27T17:46:27.188Z,1.43
2023-02-27T17:48:56.701Z,1.70
2023-02-27T17:51:24.516Z,2.10
2023-02-27T17:53:53.896Z,1.50
2023-02-27T17:56:30.990Z,1.50
2023-02-27T18:06:50.616Z,1.60
2023-02-27T18:09:41.352Z,1.60
2023-02-27T18:13:11.887Z,1.70
2023-02-27T18:23:53.424Z,2.10
2023-02-27T18:26:30.130Z,2.40
2023-02-27T18:29:01.067Z,2.23
2023-02-27T18:31:31.246Z,2.10
2023-02-27T18:34:42.888Z,2.40
2023-02-27T18:37:18.932Z,2.30
2023-02-27T18:40:24.646Z,2.40
2023-02-27T18:43:00.454Z,2.13
2023-02-27T18:45:56.621Z,2.37
2023-02-27T18:48:25.036Z,2.47
2023-02-27T18:50:53.254Z,2.40
2023-02-27T18:53:24.479Z,2.40
2023-02-27T18:55:52.556Z,2.60
2023-02-27T18:58:22.517Z,2.47
2023-02-27T19:00:50.439Z,2.10
2023-02-27T19:03:19.380Z,2.63
2023-02-27T19:05:47.444Z,2.33
2023-02-27T19:08:15.851Z,2.33
2023-02-27T19:10:43.776Z,2.13
2023-02-27T19:13:12.457Z,2.63
2023-02-27T19:15:41.790Z,3.27
2023-02-27T19:18:09.672Z,2.30
2023-02-27T19:20:37.534Z,2.70
2023-02-27T19:23:05.508Z,2.83
2023-02-27T19:25:33.410Z,3.50
2023-02-27T19:28:01.453Z,2.90
2023-02-27T19:30:29.398Z,2.60
2023-02-27T19:33:05.682Z,3.10
2023-02-27T19:35:38.770Z,2.50
2023-02-27T19:38:13.207Z,2.73
2023-02-27T19:40:44.969Z,3.70
2023-02-27T19:43:15.940Z,4.10
2023-02-27T19:45:44.249Z,3.17
2023-02-27T19:48:18.837Z,3.57
2023-02-27T19:50:47.194Z,3.53
2023-02-27T19:53:15.178Z,3.10
2023-02-27T19:55:43.173Z,3.77
2023-02-27T19:58:11.194Z,3.60
2023-02-27T20:00:39.128Z,3.63
2023-02-27T20:03:08.729Z,3.77
2023-02-27T20:05:40.407Z,3.60
2023-02-27T20:08:08.384Z,4.00
2023-02-27T20:10:36.690Z,4.17
2023-02-27T20:13:10.157Z,4.43
2023-02-27T20:15:38.350Z,4.50
2023-02-27T20:18:12.413Z,4.53
2023-02-27T20:20:42.885Z,4.23
2023-02-27T20:23:18.647Z,4.00
2023-02-27T20:26:51.581Z,4.97
2023-02-27T20:33:01.808Z,4.90
2023-02-27T20:39:36.354Z,4.60
2023-02-27T20:48:51.189Z,5.47
2023-02-27T20:51:31.986Z,5.23
2023-02-27T20:54:14.044Z,6.00
2023-02-27T20:56:52.885Z,5.10
2023-02-27T20:59:30.647Z,5.60
2023-02-27T21:06:05.212Z,6.20
2023-02-27T21:09:10.072Z,5.40
2023-02-27T21:11:46.102Z,5.30
2023-02-27T21:14:52.478Z,5.63
2023-02-27T21:26:05.529Z,5.70
2023-02-27T21:29:17.850Z,6.33
2023-02-27T21:35:48.760Z,6.63
2023-02-27T21:38:17.842Z,6.00
2023-02-27T21:40:46.008Z,5.70
2023-02-27T21:43:14.202Z,5.43
2023-02-27T21:45:47.521Z,5.70
2023-02-27T21:48:16.100Z,5.60
2023-02-27T21:50:43.946Z,6.00
2023-02-27T21:53:11.693Z,7.50
2023-02-27T21:55:42.174Z,7.27
2023-02-27T21:58:10.902Z,8.20
2023-02-27T22:00:38.935Z,8.20
2023-02-27T22:03:08.378Z,9.43
2023-02-27T22:05:36.378Z,8.83
2023-02-27T22:08:04.556Z,8.20
2023-02-27T22:10:36.047Z,9.23
2023-02-27T22:13:04.051Z,8.67
2023-02-27T22:15:32.085Z,8.17
2023-02-27T22:18:00.564Z,8.57
2023-02-27T22:20:30.040Z,9.43
2023-02-27T22:22:58.973Z,8.40
2023-02-27T22:25:26.846Z,8.10
2023-02-27T22:27:54.896Z,7.60
2023-02-27T22:30:22.933Z,8.10
2023-02-27T22:32:50.832Z,8.20
2023-02-27T22:35:18.969Z,7.67
2023-02-27T22:37:48.331Z,7.90
2023-02-27T22:40:18.781Z,7.57
2023-02-27T22:42:48.021Z,7.20
2023-02-27T22:45:16.628Z,7.30
2023-02-27T22:47:44.627Z,6.60
2023-02-27T22:50:14.232Z,7.27
2023-02-27T22:52:42.036Z,7.13
2023-02-27T22:55:12.740Z,7.73
2023-02-27T22:57:40.701Z,7.40
2023-02-27T23:00:11.608Z,7.73
2023-02-27T23:02:41.580Z,6.67
2023-02-27T23:05:11.001Z,7.27
2023-02-27T23:07:40.153Z,6.07
2023-02-27T23:10:09.904Z,7.30
2023-02-27T23:12:39.316Z,6.73
2023-02-27T23:15:08.746Z,7.33
2023-02-27T23:17:41.453Z,6.63
2023-02-27T23:20:17.683Z,6.50
2023-02-27T23:22:45.571Z,6.83
2023-02-27T23:25:13.489Z,6.00
2023-02-27T23:27:43.016Z,6.40
2023-02-27T23:30:12.545Z,6.47
2023-02-27T23:32:44.139Z,6.70
2023-02-27T23:35:12.140Z,6.40
2023-02-27T23:37:40.376Z,6.43
2023-02-27T23:40:09.577Z,6.30
2023-02-27T23:42:55.482Z,5.93
2023-02-27T23:45:24.990Z,6.03
2023-02-27T23:47:53.449Z,6.40
2023-02-27T23:50:21.947Z,5.47
2023-02-27T23:52:50.036Z,5.40
2023-02-27T23:55:18.270Z,5.93
2023-02-27T23:57:46.074Z,5.90
